createdAt,value
2022-09-06T00:00:49.724Z,101082.28
2022-09-06T00:01:52.014Z,101079.38
2022-09-06T00:02:54.649Z,101083.09
2022-09-06T00:03:57.482Z,101077.69
2022-09-06T00:04:59.190Z,101083.94
2022-09-06T00:06:07.298Z,101086.66
2022-09-06T00:07:08.957Z,101093.97
2022-09-06T00:08:11.521Z,101105.66
2022-09-06T00:09:13.144Z,101112.09
2022-09-06T00:10:16.172Z,101122.31
2022-09-06T00:11:18.601Z,101126.91
2022-09-06T00:12:22.817Z,101138.97
2022-09-06T00:13:24.496Z,101140.00
2022-09-06T00:14:27.089Z,101145.66
2022-09-06T00:15:28.908Z,101149.38
2022-09-06T00:16:31.619Z,101154.16
2022-09-06T00:17:33.785Z,101155.22
2022-09-06T00:18:36.383Z,101164.19
2022-09-06T00:19:38.151Z,101153.53
2022-09-06T00:20:41.971Z,101160.63
2022-09-06T00:21:43.556Z,101158.94
2022-09-06T00:22:46.116Z,101161.66
2022-09-06T00:23:47.981Z,101161.66
2022-09-06T00:24:50.520Z,101158.09
2022-09-06T00:25:52.215Z,101156.47
2022-09-06T00:26:54.791Z,101159.34
2022-09-06T00:28:00.455Z,101168.53
2022-09-06T00:29:03.050Z,101154.34
2022-09-06T00:30:05.678Z,101158.47
2022-09-06T00:31:12.850Z,101168.03
2022-09-06T00:32:14.533Z,101177.63
2022-09-06T00:33:17.213Z,101192.63
2022-09-06T00:34:18.858Z,101191.31
2022-09-06T00:35:24.613Z,101199.69
2022-09-06T00:36:26.423Z,101201.94
2022-09-06T00:37:28.990Z,101209.22
2022-09-06T00:38:30.930Z,101203.16
2022-09-06T00:39:33.572Z,101201.69
2022-09-06T00:40:35.714Z,101193.56
2022-09-06T00:41:38.618Z,101187.50
2022-09-06T00:42:40.492Z,101181.44
2022-09-06T00:43:44.830Z,101187.06
2022-09-06T00:44:48.129Z,101195.38
2022-09-06T00:45:50.979Z,101204.75
2022-09-06T00:46:54.657Z,101206.59
2022-09-06T00:47:58.712Z,101205.13
2022-09-06T00:49:05.097Z,101205.13
2022-09-06T00:50:10.091Z,101209.72
2022-09-06T00:51:14.185Z,101201.81
2022-09-06T00:52:19.505Z,101211.78
2022-09-06T00:53:21.803Z,101213.66
2022-09-06T00:54:24.673Z,101219.91
2022-09-06T00:55:26.585Z,101217.41
2022-09-06T00:56:31.428Z,101224.28
2022-09-06T00:57:33.169Z,101223.66
2022-09-06T00:58:36.578Z,101224.50
2022-09-06T00:59:40.340Z,101225.53
2022-09-06T01:00:44.796Z,101228.22
2022-09-06T01:01:46.424Z,101228.22
2022-09-06T01:02:49.813Z,101229.06
2022-09-06T01:03:51.962Z,101232.81
2022-09-06T01:04:55.791Z,101226.56
2022-09-06T01:06:06.441Z,101229.28
2022-09-06T01:07:19.440Z,101234.03
2022-09-06T01:08:32.744Z,101237.78
2022-09-06T01:09:48.351Z,101245.28
2022-09-06T01:11:01.355Z,101241.91
2022-09-06T01:12:21.904Z,101237.72
2022-09-06T01:13:35.386Z,101239.75
2022-09-06T01:15:00.440Z,101241.00
2022-09-06T01:16:11.660Z,101240.38
2022-09-06T01:17:23.601Z,101235.31
2022-09-06T01:18:40.577Z,101233.84
2022-09-06T01:20:20.946Z,101227.13
2022-09-06T01:21:37.276Z,101224.81
2022-09-06T01:23:05.906Z,101225.41
2022-09-06T01:24:42.400Z,101225.78
2022-09-06T01:25:59.898Z,101221.34
2022-09-06T01:27:38.518Z,101203.56
2022-09-06T01:28:42.705Z,101200.97
2022-09-06T01:29:48.917Z,101205.47
2022-09-06T01:30:54.699Z,101204.56
2022-09-06T01:32:05.764Z,101206.31
2022-09-06T01:33:14.187Z,101197.75
2022-09-06T01:34:23.135Z,101198.31
2022-09-06T01:35:33.828Z,101194.97
2022-09-06T01:37:06.193Z,101197.22
2022-09-06T01:38:08.242Z,101185.94
2022-09-06T01:39:17.787Z,101188.00
2022-09-06T01:40:20.869Z,101185.84
2022-09-06T01:41:22.473Z,101190.63
2022-09-06T01:42:28.343Z,101179.16
2022-09-06T01:43:35.002Z,101182.06
2022-09-06T01:44:40.383Z,101176.66
2022-09-06T01:45:52.089Z,101182.22
2022-09-06T01:47:01.816Z,101173.28
2022-09-06T01:48:11.288Z,101169.09
2022-09-06T01:49:29.921Z,101165.75
2022-09-06T01:50:46.113Z,101161.53
2022-09-06T01:52:03.671Z,101162.97
2022-09-06T01:53:17.502Z,101166.84
2022-09-06T01:54:35.107Z,101159.34
2022-09-06T01:55:49.794Z,101165.97
2022-09-06T01:57:04.318Z,101183.38
2022-09-06T01:58:18.494Z,101174.63
2022-09-06T01:59:39.799Z,101190.84
2022-09-06T02:00:52.790Z,101204.19
2022-09-06T02:02:03.616Z,101202.28
2022-09-06T02:03:13.059Z,101195.88
2022-09-06T02:04:21.775Z,101195.88
2022-09-06T02:05:31.753Z,101203.81
2022-09-06T02:06:38.280Z,101203.81
2022-09-06T02:07:43.765Z,101194.84
2022-09-06T02:08:50.647Z,101202.97
2022-09-06T02:09:57.568Z,101195.69
2022-09-06T02:11:02.764Z,101195.50
2022-09-06T02:12:06.870Z,101196.34
2022-09-06T02:13:10.774Z,101196.34
2022-09-06T02:14:19.000Z,101200.06
2022-09-06T02:15:26.556Z,101194.66
2022-09-06T02:16:31.108Z,101186.38
2022-09-06T02:17:35.625Z,101195.13
2022-09-06T02:18:43.743Z,101184.31
2022-09-06T02:19:50.215Z,101180.59
2022-09-06T02:20:56.859Z,101181.44
2022-09-06T02:21:59.347Z,101184.31
2022-09-06T02:23:05.137Z,101180.13
2022-09-06T02:24:11.980Z,101181.13
2022-09-06T02:25:19.745Z,101192.78
2022-09-06T02:26:25.438Z,101180.28
2022-09-06T02:27:31.028Z,101179.28
2022-09-06T02:28:33.191Z,101173.88
2022-09-06T02:29:36.545Z,101177.59
2022-09-06T02:30:43.068Z,101172.19
2022-09-06T02:31:49.084Z,101174.06
2022-09-06T02:32:58.000Z,101165.13
2022-09-06T02:34:01.248Z,101175.09
2022-09-06T02:35:09.241Z,101172.38
2022-09-06T02:36:11.837Z,101161.75
2022-09-06T02:37:15.139Z,101152.63
2022-09-06T02:38:18.658Z,101149.06
2022-09-06T02:39:20.247Z,101150.94
2022-09-06T02:40:23.534Z,101147.59
2022-09-06T02:41:25.757Z,101147.41
2022-09-06T02:42:28.285Z,101144.72
2022-09-06T02:43:30.010Z,101140.31
2022-09-06T02:44:32.652Z,101149.44
2022-09-06T02:45:34.411Z,101143.22
2022-09-06T02:46:38.459Z,101145.91
2022-09-06T02:47:40.125Z,101142.56
2022-09-06T02:48:42.691Z,101149.84
2022-09-06T02:49:44.442Z,101150.84
2022-09-06T02:50:47.095Z,101151.69
2022-09-06T02:51:48.734Z,101147.34
2022-09-06T02:53:02.315Z,101142.94
2022-09-06T02:54:04.521Z,101143.59
2022-09-06T02:55:08.538Z,101142.56
2022-09-06T02:56:10.561Z,101144.44
2022-09-06T02:57:14.107Z,101140.88
2022-09-06T02:58:16.298Z,101144.63
2022-09-06T02:59:18.904Z,101149.38
2022-09-06T03:00:20.563Z,101135.00
2022-09-06T03:01:23.270Z,101136.88
2022-09-06T03:02:26.332Z,101138.56
2022-09-06T03:03:29.431Z,101133.16
2022-09-06T03:04:31.563Z,101135.84
2022-09-06T03:05:34.733Z,101131.28
2022-09-06T03:06:36.360Z,101130.44
2022-09-06T03:07:39.055Z,101130.44
2022-09-06T03:08:40.648Z,101125.03
2022-09-06T03:09:43.323Z,101123.34
2022-09-06T03:10:49.264Z,101120.66
2022-09-06T03:11:52.079Z,101112.53
2022-09-06T03:12:53.761Z,101113.38
2022-09-06T03:13:56.477Z,101108.81
2022-09-06T03:14:58.124Z,101109.03
2022-09-06T03:16:01.409Z,101105.50
2022-09-06T03:17:03.677Z,101099.41
2022-09-06T03:18:07.751Z,101087.59
2022-09-06T03:19:09.331Z,101097.56
2022-09-06T03:20:13.068Z,101094.00
2022-09-06T03:21:15.595Z,101095.53
2022-09-06T03:22:18.348Z,101091.97
2022-09-06T03:23:21.205Z,101089.06
2022-09-06T03:24:23.736Z,101095.53
2022-09-06T03:25:26.130Z,101093.84
2022-09-06T03:26:30.474Z,101093.00
2022-09-06T03:27:32.446Z,101099.25
2022-09-06T03:28:35.421Z,101095.69
2022-09-06T03:29:37.107Z,101094.69
2022-09-06T03:30:40.114Z,101091.31
2022-09-06T03:31:41.780Z,101102.13
2022-09-06T03:32:45.059Z,101103.81
2022-09-06T03:33:48.090Z,101113.59
2022-09-06T03:34:50.878Z,101113.78
2022-09-06T03:35:54.519Z,101121.88
2022-09-06T03:36:57.387Z,101118.34
2022-09-06T03:38:00.232Z,101114.63
2022-09-06T03:39:02.777Z,101111.28
2022-09-06T03:40:05.221Z,101108.56
2022-09-06T03:41:07.901Z,101105.88
2022-09-06T03:42:09.777Z,101106.72
2022-09-06T03:43:12.359Z,101111.28
2022-09-06T03:44:14.058Z,101122.94
2022-09-06T03:45:16.739Z,101123.75
2022-09-06T03:46:18.338Z,101122.72
2022-09-06T03:47:21.111Z,101125.41
2022-09-06T03:48:24.497Z,101128.13
2022-09-06T03:49:28.514Z,101130.00
2022-09-06T03:50:30.083Z,101130.19
2022-09-06T03:51:32.662Z,101131.22
2022-09-06T03:52:34.266Z,101127.84
2022-09-06T03:53:36.841Z,101126.78
2022-09-06T03:54:38.417Z,101120.91
2022-09-06T03:55:41.195Z,101124.47
2022-09-06T03:56:42.870Z,101126.31
2022-09-06T03:57:45.463Z,101115.72
2022-09-06T03:58:47.336Z,101121.13
2022-09-06T03:59:50.001Z,101122.13
2022-09-06T04:01:00.527Z,101111.53
2022-09-06T04:02:04.225Z,101112.56
2022-09-06T04:03:05.887Z,101121.66
2022-09-06T04:04:08.470Z,101121.66
2022-09-06T04:05:13.284Z,101119.19
2022-09-06T04:06:15.829Z,101110.41
2022-09-06T04:07:17.523Z,101119.34
2022-09-06T04:08:20.103Z,101117.88
2022-09-06T04:09:21.744Z,101115.53
2022-09-06T04:10:24.337Z,101109.66
2022-09-06T04:11:26.083Z,101121.69
2022-09-06T04:12:28.851Z,101121.03
2022-09-06T04:13:31.520Z,101119.75
2022-09-06T04:14:34.066Z,101122.81
2022-09-06T04:15:36.986Z,101123.16
2022-09-06T04:16:39.713Z,101127.94
2022-09-06T04:17:44.478Z,101123.75
2022-09-06T04:18:47.091Z,101124.28
2022-09-06T04:19:48.799Z,101121.97
2022-09-06T04:20:55.848Z,101121.31
2022-09-06T04:21:57.584Z,101127.09
2022-09-06T04:23:00.188Z,101127.25
2022-09-06T04:24:03.614Z,101130.31
2022-09-06T04:25:06.238Z,101129.69
2022-09-06T04:26:09.034Z,101128.16
2022-09-06T04:27:10.824Z,101126.50
2022-09-06T04:28:13.411Z,101120.28
2022-09-06T04:29:16.005Z,101130.22
2022-09-06T04:30:17.823Z,101124.81
2022-09-06T04:31:20.911Z,101123.97
2022-09-06T04:32:22.720Z,101123.13
2022-09-06T04:33:26.673Z,101123.13
2022-09-06T04:34:28.264Z,101109.00
2022-09-06T04:35:30.860Z,101118.09
2022-09-06T04:36:34.824Z,101111.88
2022-09-06T04:37:36.440Z,101120.16
2022-09-06T04:38:40.756Z,101116.81
2022-09-06T04:39:42.391Z,101109.75
2022-09-06T04:40:45.178Z,101120.34
2022-09-06T04:41:46.861Z,101114.28
2022-09-06T04:42:49.790Z,101113.78
2022-09-06T04:43:52.349Z,101118.53
2022-09-06T04:44:53.927Z,101122.25
2022-09-06T04:45:56.607Z,101123.25
2022-09-06T04:47:09.479Z,101121.59
2022-09-06T04:48:12.890Z,101118.22
2022-09-06T04:49:14.528Z,101113.03
2022-09-06T04:50:17.147Z,101114.06
2022-09-06T04:51:19.362Z,101117.75
2022-09-06T04:52:26.010Z,101126.91
2022-09-06T04:53:31.228Z,101126.06
2022-09-06T04:54:33.768Z,101129.97
2022-09-06T04:55:35.462Z,101130.13
2022-09-06T04:56:38.043Z,101133.66
2022-09-06T04:57:44.454Z,101135.53
2022-09-06T04:58:50.310Z,101137.56
2022-09-06T04:59:51.899Z,101144.00
2022-09-06T05:00:54.849Z,101139.59
2022-09-06T05:01:56.617Z,101144.16
2022-09-06T05:02:59.989Z,101136.25
2022-09-06T05:04:01.924Z,101132.88
2022-09-06T05:05:04.953Z,101138.28
2022-09-06T05:06:08.379Z,101137.63
2022-09-06T05:07:11.106Z,101140.53
2022-09-06T05:08:14.671Z,101138.00
2022-09-06T05:09:17.310Z,101139.00
2022-09-06T05:10:19.233Z,101151.50
2022-09-06T05:11:21.981Z,101142.75
2022-09-06T05:12:23.575Z,101141.06
2022-09-06T05:13:26.539Z,101144.75
2022-09-06T05:14:28.629Z,101143.91
2022-09-06T05:15:31.594Z,101150.16
2022-09-06T05:16:34.218Z,101146.44
2022-09-06T05:17:36.133Z,101150.84
2022-09-06T05:18:38.813Z,101151.66
2022-09-06T05:19:40.569Z,101142.75
2022-09-06T05:20:43.197Z,101144.41
2022-09-06T05:21:44.882Z,101151.66
2022-09-06T05:22:54.140Z,101153.53
2022-09-06T05:23:58.782Z,101145.44
2022-09-06T05:25:01.585Z,101138.16
2022-09-06T05:26:03.621Z,101153.34
2022-09-06T05:27:07.439Z,101145.25
2022-09-06T05:28:09.107Z,101153.16
2022-09-06T05:29:11.656Z,101153.16
2022-09-06T05:30:14.454Z,101155.19
2022-09-06T05:31:26.709Z,101145.25
2022-09-06T05:32:28.339Z,101156.88
2022-09-06T05:33:30.890Z,101159.41
2022-09-06T05:34:32.826Z,101156.53
2022-09-06T05:35:35.432Z,101149.28
2022-09-06T05:36:38.638Z,101152.97
2022-09-06T05:37:41.397Z,101149.28
2022-09-06T05:38:43.019Z,101155.31
2022-09-06T05:39:47.080Z,101153.09
2022-09-06T05:40:48.688Z,101156.09
2022-09-06T05:41:51.274Z,101161.78
2022-09-06T05:42:52.979Z,101161.25
2022-09-06T05:43:55.856Z,101155.28
2022-09-06T05:44:57.468Z,101162.03
2022-09-06T05:46:00.418Z,101150.88
2022-09-06T05:47:02.360Z,101160.94
2022-09-06T05:48:05.333Z,101154.34
2022-09-06T05:49:08.084Z,101156.47
2022-09-06T05:50:11.057Z,101160.66
2022-09-06T05:51:13.567Z,101160.13
2022-09-06T05:52:18.309Z,101157.06
2022-09-06T05:53:20.081Z,101148.59
2022-09-06T05:54:22.783Z,101156.31
2022-09-06T05:55:26.185Z,101157.63
2022-09-06T05:56:28.864Z,101150.16
2022-09-06T05:57:30.514Z,101159.41
2022-09-06T05:58:33.502Z,101154.50
2022-09-06T05:59:35.318Z,101152.06
2022-09-06T06:00:38.067Z,101156.06
2022-09-06T06:01:47.857Z,101152.63
2022-09-06T06:02:50.980Z,101147.69
2022-09-06T06:03:54.658Z,101160.63
2022-09-06T06:04:58.223Z,101150.47
2022-09-06T06:05:59.943Z,101155.34
2022-09-06T06:07:02.639Z,101154.13
2022-09-06T06:08:04.352Z,101158.78
2022-09-06T06:09:07.111Z,101147.59
2022-09-06T06:10:09.785Z,101148.06
2022-09-06T06:11:14.228Z,101158.50
2022-09-06T06:12:16.920Z,101156.25
2022-09-06T06:13:18.578Z,101150.47
2022-09-06T06:14:21.154Z,101157.34
2022-09-06T06:15:22.806Z,101148.84
2022-09-06T06:16:25.718Z,101146.63
2022-09-06T06:17:27.655Z,101153.31
2022-09-06T06:18:30.571Z,101148.56
2022-09-06T06:19:32.175Z,101148.38
2022-09-06T06:20:34.824Z,101148.84
2022-09-06T06:21:38.393Z,101147.63
2022-09-06T06:22:40.989Z,101144.72
2022-09-06T06:23:44.510Z,101149.94
2022-09-06T06:24:47.395Z,101142.28
2022-09-06T06:25:49.047Z,101140.19
2022-09-06T06:26:52.974Z,101139.84
2022-09-06T06:27:54.757Z,101143.38
2022-09-06T06:28:58.861Z,101135.91
2022-09-06T06:30:01.465Z,101135.53
2022-09-06T06:31:03.272Z,101138.69
2022-09-06T06:32:06.210Z,101139.16
2022-09-06T06:33:08.004Z,101140.44
2022-09-06T06:34:10.573Z,101143.59
2022-09-06T06:35:12.545Z,101138.84
2022-09-06T06:36:22.596Z,101139.47
2022-09-06T06:37:24.245Z,101139.69
2022-09-06T06:38:31.761Z,101135.94
2022-09-06T06:39:34.461Z,101139.47
2022-09-06T06:40:36.243Z,101125.50
2022-09-06T06:41:39.029Z,101136.31
2022-09-06T06:42:42.143Z,101135.47
2022-09-06T06:43:45.071Z,101139.41
2022-09-06T06:44:46.700Z,101133.16
2022-09-06T06:45:50.398Z,101123.41
2022-09-06T06:46:53.019Z,101123.41
2022-09-06T06:47:54.753Z,101128.59
2022-09-06T06:48:57.367Z,101127.56
2022-09-06T06:49:59.974Z,101123.00
2022-09-06T06:51:01.912Z,101124.66
2022-09-06T06:52:04.705Z,101121.94
2022-09-06T06:53:06.297Z,101121.94
2022-09-06T06:54:08.968Z,101125.50
2022-09-06T06:55:10.658Z,101126.34
2022-09-06T06:56:18.332Z,101132.59
2022-09-06T06:57:20.899Z,101127.19
2022-09-06T06:58:23.955Z,101125.50
2022-09-06T06:59:26.474Z,101128.03
2022-09-06T07:00:28.502Z,101126.97
2022-09-06T07:01:33.657Z,101128.66
2022-09-06T07:02:35.489Z,101131.38
2022-09-06T07:03:38.267Z,101138.47
2022-09-06T07:04:40.832Z,101125.94
2022-09-06T07:08:28.852Z,101128.94
2022-09-06T07:10:53.291Z,101128.94
2022-09-06T07:11:56.283Z,101130.59
2022-09-06T07:12:58.049Z,101133.28
2022-09-06T07:14:02.128Z,101133.13
2022-09-06T07:15:04.491Z,101135.59
2022-09-06T07:16:08.878Z,101130.84
2022-09-06T07:17:11.627Z,101132.50
2022-09-06T07:18:15.617Z,101129.63
2022-09-06T07:22:05.218Z,101125.69
2022-09-06T07:24:30.168Z,101126.97
2022-09-06T07:25:32.429Z,101118.22
2022-09-06T07:26:36.285Z,101120.31
2022-09-06T07:28:47.966Z,101124.50
2022-09-06T07:29:51.932Z,101132.44
2022-09-06T07:30:55.225Z,101123.47
2022-09-06T07:32:13.216Z,101127.22
2022-09-06T07:33:15.897Z,101121.78
2022-09-06T07:34:19.131Z,101125.16
2022-09-06T07:35:20.881Z,101127.66
2022-09-06T07:36:23.701Z,101116.66
2022-09-06T07:37:25.331Z,101136.22
2022-09-06T07:38:29.565Z,101121.66
2022-09-06T07:39:33.071Z,101124.38
2022-09-06T07:40:35.693Z,101119.59
2022-09-06T07:41:37.444Z,101123.81
2022-09-06T07:42:40.040Z,101113.78
2022-09-06T07:43:42.752Z,101121.91
2022-09-06T07:44:45.357Z,101122.56
2022-09-06T07:45:49.451Z,101122.16
2022-09-06T07:46:52.660Z,101124.66
2022-09-06T07:48:59.107Z,101117.81
2022-09-06T07:51:23.850Z,101120.13
2022-09-06T07:53:57.902Z,101116.63
2022-09-06T07:55:05.880Z,101122.25
2022-09-06T07:56:10.327Z,101128.13
2022-09-06T07:57:12.145Z,101131.69
2022-09-06T07:58:15.200Z,101126.91
2022-09-06T07:59:17.891Z,101127.53
2022-09-06T08:00:19.666Z,101130.25
2022-09-06T08:01:30.955Z,101130.25
2022-09-06T08:02:32.795Z,101129.84
2022-09-06T08:03:35.485Z,101128.84
2022-09-06T08:04:38.062Z,101133.84
2022-09-06T08:09:48.685Z,101131.00
2022-09-06T08:10:50.832Z,101130.59
2022-09-06T08:11:53.652Z,101134.97
2022-09-06T08:12:55.347Z,101134.59
2022-09-06T08:14:00.241Z,101136.06
2022-09-06T08:15:02.553Z,101127.09
2022-09-06T08:16:06.998Z,101128.78
2022-09-06T08:17:11.046Z,101128.78
2022-09-06T08:18:12.833Z,101131.47
2022-09-06T08:19:15.491Z,101130.41
2022-09-06T08:20:17.804Z,101132.09
2022-09-06T08:21:23.459Z,101128.16
2022-09-06T08:22:26.085Z,101137.13
2022-09-06T08:23:29.152Z,101127.97
2022-09-06T08:24:32.777Z,101130.47
2022-09-06T08:25:34.395Z,101127.56
2022-09-06T08:26:40.181Z,101132.59
2022-09-06T08:27:42.940Z,101138.00
2022-09-06T08:28:45.943Z,101130.50
2022-09-06T08:29:48.705Z,101126.75
2022-09-06T08:30:50.337Z,101127.59
2022-09-06T08:31:53.079Z,101127.38
2022-09-06T08:32:56.793Z,101128.88
2022-09-06T08:34:00.781Z,101128.66
2022-09-06T08:35:02.729Z,101123.25
2022-09-06T08:36:06.240Z,101121.81
2022-09-06T08:37:07.890Z,101117.00
2022-09-06T08:38:10.469Z,101117.00
2022-09-06T08:39:12.358Z,101120.16
2022-09-06T08:40:20.768Z,101122.66
2022-09-06T08:41:26.038Z,101118.53
2022-09-06T08:42:28.800Z,101120.19
2022-09-06T08:43:30.558Z,101118.13
2022-09-06T08:46:00.395Z,101122.47
2022-09-06T08:47:07.484Z,101120.47
2022-09-06T08:48:11.889Z,101119.00
2022-09-06T08:49:13.696Z,101127.78
2022-09-06T08:50:16.493Z,101115.69
2022-09-06T08:51:47.863Z,101119.00
2022-09-06T08:53:16.886Z,101116.09
2022-09-06T08:54:29.944Z,101118.81
2022-09-06T08:55:37.397Z,101117.56
2022-09-06T08:56:52.203Z,101119.03
2022-09-06T08:58:06.068Z,101117.38
2022-09-06T08:59:14.538Z,101111.97
2022-09-06T09:00:17.297Z,101110.09
2022-09-06T09:01:25.430Z,101115.28
2022-09-06T09:02:29.576Z,101114.88
2022-09-06T09:03:36.606Z,101106.31
2022-09-06T09:04:44.370Z,101107.59
2022-09-06T09:05:50.377Z,101102.59
2022-09-06T09:06:57.104Z,101103.22
2022-09-06T09:08:07.662Z,101107.41
2022-09-06T09:09:14.929Z,101104.50
2022-09-06T09:10:24.902Z,101103.22
2022-09-06T09:11:28.734Z,101109.09
2022-09-06T09:12:33.873Z,101103.25
2022-09-06T09:13:41.805Z,101105.34
2022-09-06T09:14:48.321Z,101105.13
2022-09-06T09:15:50.987Z,101109.09
2022-09-06T09:16:56.101Z,101102.41
2022-09-06T09:17:58.716Z,101098.25
2022-09-06T09:19:03.570Z,101094.13
2022-09-06T09:20:08.314Z,101096.66
2022-09-06T09:21:11.665Z,101096.22
2022-09-06T09:22:17.601Z,101099.38
2022-09-06T09:23:20.460Z,101096.41
2022-09-06T09:24:24.264Z,101095.16
2022-09-06T09:25:26.918Z,101101.66
2022-09-06T09:26:33.822Z,101094.13
2022-09-06T09:27:37.856Z,101097.69
2022-09-06T09:28:40.615Z,101102.09
2022-09-06T09:31:35.562Z,101090.78
2022-09-06T09:32:40.020Z,101084.94
2022-09-06T09:33:42.719Z,101094.75
2022-09-06T09:34:45.902Z,101080.97
2022-09-06T09:35:48.888Z,101083.25
2022-09-06T09:38:42.713Z,101082.41
2022-09-06T09:39:44.719Z,101078.66
2022-09-06T09:40:52.091Z,101082.00
2022-09-06T09:41:54.747Z,101078.25
2022-09-06T09:43:08.931Z,101076.16
2022-09-06T09:44:18.329Z,101070.72
2022-09-06T09:45:25.179Z,101070.53
2022-09-06T09:46:33.964Z,101067.38
2022-09-06T09:47:35.654Z,101075.31
2022-09-06T09:48:39.191Z,101059.00
2022-09-06T09:49:40.875Z,101062.78
2022-09-06T09:50:44.792Z,101061.53
2022-09-06T09:52:04.940Z,101056.50
2022-09-06T09:53:09.724Z,101065.28
2022-09-06T09:54:14.646Z,101062.34
2022-09-06T09:55:16.404Z,101058.56
2022-09-06T09:56:30.816Z,101055.66
2022-09-06T09:57:45.153Z,101057.34
2022-09-06T09:58:46.853Z,101056.06
2022-09-06T09:59:53.829Z,101052.72
2022-09-06T10:01:11.053Z,101055.44
2022-09-06T10:02:24.509Z,101050.19
2022-09-06T10:03:29.598Z,101055.22
2022-09-06T10:06:02.265Z,101046.44
2022-09-06T10:07:12.244Z,101046.88
2022-09-06T10:08:15.585Z,101048.50
2022-09-06T10:09:21.242Z,101041.00
2022-09-06T10:10:25.467Z,101037.22
2022-09-06T10:11:39.360Z,101038.91
2022-09-06T10:12:43.873Z,101043.28
2022-09-06T10:13:46.581Z,101043.28
2022-09-06T10:14:49.489Z,101032.41
2022-09-06T10:15:54.025Z,101041.63
2022-09-06T10:16:56.668Z,101045.16
2022-09-06T10:17:59.686Z,101037.00
2022-09-06T10:19:13.284Z,101046.00
2022-09-06T10:20:16.796Z,101042.22
2022-09-06T10:21:22.223Z,101038.47
2022-09-06T10:22:29.476Z,101047.03
2022-09-06T10:25:22.783Z,101062.69
2022-09-06T10:26:33.353Z,101080.22
2022-09-06T10:28:08.167Z,101083.16
2022-09-06T10:29:10.634Z,101080.44
2022-09-06T10:30:14.454Z,101072.91
2022-09-06T10:31:37.369Z,101080.63
2022-09-06T10:32:42.963Z,101064.31
2022-09-06T10:33:59.235Z,101063.88
2022-09-06T10:35:15.786Z,101055.50
2022-09-06T10:36:24.076Z,101055.91
2022-09-06T10:37:43.303Z,101049.22
2022-09-06T10:38:54.821Z,101046.28
2022-09-06T10:40:07.346Z,101046.91
2022-09-06T10:41:29.447Z,101044.16
2022-09-06T10:42:39.336Z,101045.84
2022-09-06T10:43:50.594Z,101041.00
2022-09-06T10:45:04.397Z,101046.25
2022-09-06T10:46:15.022Z,101048.53
2022-09-06T10:47:19.063Z,101046.41
2022-09-06T10:48:28.518Z,101048.50
2022-09-06T10:49:34.521Z,101046.38
2022-09-06T10:50:42.752Z,101056.88
2022-09-06T10:51:50.573Z,101057.50
2022-09-06T10:52:54.125Z,101057.06
2022-09-06T10:54:04.770Z,101054.94
2022-09-06T10:55:13.918Z,101048.66
2022-09-06T10:56:21.991Z,101054.50
2022-09-06T11:00:21.745Z,101045.31
2022-09-06T11:01:31.307Z,101049.47
2022-09-06T11:02:42.918Z,101044.88
2022-09-06T11:03:55.662Z,101046.53
2022-09-06T11:06:34.931Z,101043.81
2022-09-06T11:09:13.577Z,101043.53
2022-09-06T11:10:22.865Z,101048.53
2022-09-06T11:11:35.444Z,101042.66
2022-09-06T11:12:43.430Z,101041.63
2022-09-06T11:13:45.134Z,101036.78
2022-09-06T11:14:48.487Z,101032.16
2022-09-06T11:15:57.500Z,101032.56
2022-09-06T11:17:06.645Z,101028.78
2022-09-06T11:18:18.304Z,101027.97
2022-09-06T11:19:27.029Z,101027.97
2022-09-06T11:20:36.462Z,101029.63
2022-09-06T11:22:30.924Z,101027.97
2022-09-06T11:23:49.117Z,101024.63
2022-09-06T11:25:17.105Z,101031.72
2022-09-06T11:26:43.299Z,101030.88
2022-09-06T11:27:47.844Z,101030.44
2022-09-06T11:28:54.693Z,101030.03
2022-09-06T11:29:58.869Z,101032.31
2022-09-06T11:31:00.944Z,101036.22
2022-09-06T11:32:25.173Z,101039.59
2022-09-06T11:33:30.327Z,101038.31
2022-09-06T11:34:33.976Z,101044.13
2022-09-06T11:35:37.610Z,101037.66
2022-09-06T11:36:46.914Z,101043.69
2022-09-06T11:37:59.152Z,101044.75
2022-09-06T11:39:04.649Z,101039.28
2022-09-06T11:40:30.618Z,101036.13
2022-09-06T11:41:36.542Z,101034.06
2022-09-06T11:43:11.783Z,101038.22
2022-09-06T11:44:54.452Z,101036.94
2022-09-06T11:45:57.148Z,101030.22
2022-09-06T11:47:02.039Z,101028.50
2022-09-06T11:48:34.249Z,101033.50
2022-09-06T11:49:41.249Z,101030.31
2022-09-06T11:51:02.807Z,101040.53
2022-09-06T11:52:57.731Z,101036.56
2022-09-06T11:54:21.772Z,101034.44
2022-09-06T11:55:31.760Z,101028.31
2022-09-06T11:56:43.166Z,101030.81
2022-09-06T11:57:48.049Z,101027.88
2022-09-06T11:58:57.018Z,101022.16
2022-09-06T12:00:04.138Z,101022.81
2022-09-06T12:01:40.948Z,101018.41
2022-09-06T12:02:44.795Z,101019.00
2022-09-06T12:04:07.750Z,101021.72
2022-09-06T12:05:16.686Z,101025.66
2022-09-06T12:06:20.808Z,101022.28
2022-09-06T12:07:22.477Z,101020.97
2022-09-06T12:08:32.616Z,101018.41
2022-09-06T12:09:38.663Z,101021.75
2022-09-06T12:10:51.036Z,101013.31
2022-09-06T12:11:53.708Z,101008.72
2022-09-06T12:12:55.650Z,101012.09
2022-09-06T12:14:03.720Z,101011.63
2022-09-06T12:15:24.884Z,101013.75
2022-09-06T12:17:09.558Z,101005.81
2022-09-06T12:18:52.339Z,101008.72
2022-09-06T12:20:09.449Z,101009.59
2022-09-06T12:21:40.167Z,101004.97
2022-09-06T12:22:54.696Z,101014.59
2022-09-06T12:23:57.425Z,101010.56
2022-09-06T12:25:00.321Z,101007.16
2022-09-06T12:26:04.118Z,101004.81
2022-09-06T12:27:11.397Z,101008.13
2022-09-06T12:28:37.046Z,101004.34
2022-09-06T12:29:38.897Z,101002.69
2022-09-06T12:30:44.419Z,101003.91
2022-09-06T12:31:53.275Z,101002.59
2022-09-06T12:32:55.271Z,101010.31
2022-09-06T12:33:59.870Z,101003.34
2022-09-06T12:36:31.096Z,101005.88
2022-09-06T12:37:37.180Z,101003.72
2022-09-06T12:38:38.823Z,100999.13
2022-09-06T12:39:57.329Z,101008.72
2022-09-06T12:41:01.068Z,100996.75
2022-09-06T12:42:06.530Z,101002.81
2022-09-06T12:43:11.731Z,100999.03
2022-09-06T12:44:16.650Z,101010.53
2022-09-06T12:45:26.545Z,100999.63
2022-09-06T12:46:32.301Z,100995.84
2022-09-06T12:47:39.902Z,100992.06
2022-09-06T12:48:44.342Z,100999.16
2022-09-06T12:49:48.267Z,100990.97
2022-09-06T12:51:01.893Z,100985.31
2022-09-06T12:52:09.662Z,100994.31
2022-09-06T12:53:24.793Z,100988.25
2022-09-06T12:54:28.817Z,100985.13
2022-09-06T12:55:33.053Z,100982.88
2022-09-06T12:56:35.929Z,100988.59
2022-09-06T12:57:46.911Z,100985.59
2022-09-06T12:58:50.148Z,100987.53
2022-09-06T12:59:53.844Z,100982.66
2022-09-06T13:01:04.775Z,100981.59
2022-09-06T13:02:14.708Z,100983.03
2022-09-06T13:03:26.970Z,100982.78
2022-09-06T13:04:33.975Z,100978.53
2022-09-06T13:05:40.266Z,100972.03
2022-09-06T13:06:45.651Z,100971.56